createdAt,value
2023-03-26T00:00:54.073Z,6.05
2023-03-26T00:03:20.507Z,5.88
2023-03-26T00:05:48.201Z,8.30
2023-03-26T00:08:16.630Z,6.15
2023-03-26T00:10:44.214Z,6.00
2023-03-26T00:13:11.523Z,5.50
2023-03-26T00:15:38.443Z,6.43
2023-03-26T00:18:05.671Z,8.13
2023-03-26T00:20:35.342Z,6.93
2023-03-26T00:23:01.997Z,7.18
2023-03-26T00:25:28.483Z,6.68
2023-03-26T00:27:54.956Z,6.57
2023-03-26T00:30:21.545Z,6.18
2023-03-26T00:32:53.599Z,6.45
2023-03-26T00:35:20.859Z,5.55
2023-03-26T00:37:47.812Z,6.35
2023-03-26T00:40:14.406Z,9.57
2023-03-26T00:42:42.543Z,7.65
2023-03-26T00:50:04.322Z,6.80
2023-03-26T00:52:31.632Z,7.47
2023-03-26T00:54:58.169Z,6.40
2023-03-26T00:57:36.034Z,6.45
2023-03-26T01:00:07.259Z,5.10
2023-03-26T01:02:33.822Z,6.13
2023-03-26T01:05:02.990Z,6.00
2023-03-26T01:07:30.061Z,5.70
2023-03-26T01:09:59.697Z,5.85
2023-03-26T01:12:31.839Z,7.00
2023-03-26T01:15:00.770Z,6.10
2023-03-26T01:17:34.272Z,6.60
2023-03-26T01:20:13.439Z,7.80
2023-03-26T01:22:44.433Z,7.82
2023-03-26T01:25:12.041Z,5.13
2023-03-26T01:27:41.003Z,7.18
2023-03-26T01:30:15.143Z,7.03
2023-03-26T01:32:50.471Z,6.00
2023-03-26T01:35:43.039Z,6.63
2023-03-26T01:40:49.543Z,8.40
2023-03-26T01:43:32.435Z,6.47
2023-03-26T01:46:03.636Z,6.75
2023-03-26T01:48:39.780Z,6.25
2023-03-26T01:51:07.495Z,7.63
2023-03-26T01:53:47.233Z,7.25
2023-03-26T01:56:35.564Z,8.40
2023-03-26T01:59:20.302Z,6.47
2023-03-26T02:02:09.799Z,6.80
2023-03-26T02:04:47.008Z,7.70
2023-03-26T02:07:20.873Z,6.28
2023-03-26T02:09:52.724Z,7.10
2023-03-26T02:12:22.745Z,5.30
2023-03-26T02:14:49.594Z,6.60
2023-03-26T02:17:16.808Z,5.65
2023-03-26T02:19:44.912Z,6.60
2023-03-26T02:24:43.578Z,5.85
2023-03-26T02:27:12.207Z,7.88
2023-03-26T02:29:39.798Z,6.03
2023-03-26T02:32:08.955Z,7.30
2023-03-26T02:34:36.760Z,5.95
2023-03-26T02:37:03.245Z,7.18
2023-03-26T02:39:29.803Z,5.45
2023-03-26T02:41:56.369Z,6.35
2023-03-26T02:44:22.854Z,5.95
2023-03-26T02:46:49.334Z,4.78
2023-03-26T02:49:16.263Z,5.78
2023-03-26T02:51:42.797Z,5.32
2023-03-26T02:54:09.825Z,5.75
2023-03-26T02:56:36.558Z,5.20
2023-03-26T02:59:03.273Z,4.25
2023-03-26T03:01:30.958Z,4.70
2023-03-26T03:03:57.686Z,4.47
2023-03-26T03:06:26.377Z,6.75
2023-03-26T03:08:54.040Z,5.65
2023-03-26T03:11:24.966Z,5.97
2023-03-26T03:13:52.875Z,4.55
2023-03-26T03:16:20.153Z,5.53
2023-03-26T03:18:54.243Z,7.95
2023-03-26T03:21:21.237Z,5.45
2023-03-26T03:23:47.765Z,5.88
2023-03-26T03:26:16.803Z,5.90
2023-03-26T03:28:45.093Z,5.32
2023-03-26T03:31:11.645Z,5.70
2023-03-26T03:33:38.205Z,4.97
2023-03-26T03:36:10.438Z,6.88
2023-03-26T03:38:47.649Z,6.57
2023-03-26T03:41:14.255Z,5.70
2023-03-26T03:43:41.235Z,5.65
2023-03-26T03:46:07.839Z,7.03
2023-03-26T03:48:38.169Z,5.88
2023-03-26T03:51:06.098Z,7.10
2023-03-26T03:53:37.269Z,5.90
2023-03-26T03:56:04.787Z,5.47
2023-03-26T03:58:31.344Z,7.10
2023-03-26T04:01:04.249Z,7.18
2023-03-26T04:03:33.922Z,5.90
2023-03-26T04:06:01.046Z,7.57
2023-03-26T04:08:27.624Z,6.93
2023-03-26T04:10:54.107Z,5.07
2023-03-26T04:13:20.674Z,7.80
2023-03-26T04:15:47.318Z,6.38
2023-03-26T04:18:13.902Z,8.35
2023-03-26T04:20:46.698Z,6.28
2023-03-26T04:23:14.889Z,7.40
2023-03-26T04:25:48.482Z,8.23
2023-03-26T04:28:32.497Z,6.70
2023-03-26T04:31:02.001Z,7.97
2023-03-26T04:33:31.508Z,6.40
2023-03-26T04:36:02.588Z,6.13
2023-03-26T04:38:33.612Z,5.88
2023-03-26T04:41:03.269Z,8.90
2023-03-26T04:43:31.229Z,5.85
2023-03-26T04:45:58.123Z,7.53
2023-03-26T04:48:24.732Z,8.75
2023-03-26T04:50:51.358Z,9.35
2023-03-26T04:53:21.350Z,7.88
2023-03-26T04:55:56.227Z,7.05
2023-03-26T04:58:32.792Z,7.85
2023-03-26T05:01:01.267Z,7.60
2023-03-26T05:03:39.190Z,8.38
2023-03-26T05:06:05.917Z,7.25
2023-03-26T05:08:32.469Z,6.50
2023-03-26T05:10:58.998Z,7.78
2023-03-26T05:13:25.560Z,7.07
2023-03-26T05:15:52.635Z,6.30
2023-03-26T05:18:19.171Z,6.10
2023-03-26T05:20:46.393Z,6.47
2023-03-26T05:23:13.076Z,9.00
2023-03-26T05:25:39.544Z,5.75
2023-03-26T05:28:06.252Z,8.70
2023-03-26T05:30:32.793Z,6.95
2023-03-26T05:32:59.355Z,6.90
2023-03-26T05:35:26.260Z,8.32
2023-03-26T05:37:52.860Z,8.48
2023-03-26T05:40:20.173Z,7.72
2023-03-26T05:42:47.335Z,8.02
2023-03-26T05:45:15.450Z,7.38
2023-03-26T05:50:09.945Z,7.05
2023-03-26T05:52:37.049Z,6.97
2023-03-26T05:55:03.830Z,8.38
2023-03-26T05:57:31.179Z,5.65
2023-03-26T05:59:57.957Z,6.32
2023-03-26T06:02:24.561Z,6.50
2023-03-26T06:04:51.214Z,9.60
2023-03-26T06:07:19.829Z,4.53
2023-03-26T06:09:46.707Z,8.02
2023-03-26T06:12:13.763Z,7.45
2023-03-26T06:14:42.679Z,6.65
2023-03-26T06:17:10.388Z,7.82
2023-03-26T06:19:37.498Z,6.65
2023-03-26T06:22:04.925Z,6.20
2023-03-26T06:24:32.762Z,6.53
2023-03-26T06:26:59.265Z,5.95
2023-03-26T06:29:25.998Z,6.43
2023-03-26T06:31:52.497Z,5.53
2023-03-26T06:34:18.969Z,6.63
2023-03-26T06:36:45.571Z,6.22
2023-03-26T06:39:12.015Z,7.20
2023-03-26T06:41:38.511Z,9.05
2023-03-26T06:44:05.045Z,5.75
2023-03-26T06:46:31.962Z,7.18
2023-03-26T06:48:58.536Z,7.38
2023-03-26T06:51:25.305Z,7.55
2023-03-26T06:53:51.814Z,8.18
2023-03-26T06:56:18.260Z,8.30
2023-03-26T06:58:44.750Z,11.95
2023-03-26T07:01:11.366Z,8.23
2023-03-26T07:03:37.871Z,7.90
2023-03-26T07:06:04.596Z,8.20
2023-03-26T07:08:31.566Z,9.68
2023-03-26T07:10:58.207Z,9.20
2023-03-26T07:13:24.757Z,9.23
2023-03-26T07:15:51.262Z,9.13
2023-03-26T07:18:17.790Z,8.32
2023-03-26T07:20:46.443Z,9.23
2023-03-26T07:23:15.583Z,8.77
2023-03-26T07:25:42.362Z,11.00
2023-03-26T07:28:12.313Z,9.20
2023-03-26T07:31:03.495Z,7.40
2023-03-26T07:33:39.129Z,7.50
2023-03-26T07:36:32.868Z,8.43
2023-03-26T07:39:08.549Z,7.25
2023-03-26T07:41:40.993Z,9.90
2023-03-26T07:44:27.638Z,9.88
2023-03-26T07:46:54.584Z,8.32
2023-03-26T07:49:21.528Z,6.20
2023-03-26T07:51:49.110Z,7.80
2023-03-26T07:54:16.161Z,6.60
2023-03-26T07:57:15.099Z,7.78
2023-03-26T07:59:55.574Z,7.28
2023-03-26T08:02:43.455Z,6.28
2023-03-26T08:05:35.508Z,8.15
2023-03-26T08:08:28.487Z,7.95
2023-03-26T08:11:46.045Z,8.20
2023-03-26T08:14:33.427Z,5.65
2023-03-26T08:17:42.766Z,8.38
2023-03-26T08:20:38.124Z,7.70
2023-03-26T08:23:13.836Z,7.57
2023-03-26T08:26:02.585Z,7.13
2023-03-26T08:28:38.561Z,10.80
2023-03-26T08:31:05.731Z,9.35
2023-03-26T08:33:35.947Z,9.43
2023-03-26T08:36:04.129Z,8.30
2023-03-26T08:38:30.619Z,8.60
2023-03-26T08:41:12.407Z,9.10
2023-03-26T08:44:03.509Z,11.43
2023-03-26T08:47:13.524Z,11.95
2023-03-26T08:49:46.073Z,9.82
2023-03-26T08:52:45.763Z,10.75
2023-03-26T08:55:39.303Z,8.88
2023-03-26T08:58:14.729Z,8.30
2023-03-26T09:00:58.050Z,8.25
2023-03-26T09:03:56.127Z,9.77
2023-03-26T09:06:28.769Z,10.05
2023-03-26T09:09:23.019Z,10.95
2023-03-26T09:12:18.846Z,9.07
2023-03-26T09:15:02.346Z,8.82
2023-03-26T09:17:56.662Z,11.15
2023-03-26T09:20:42.753Z,8.07
2023-03-26T09:23:44.610Z,8.70
2023-03-26T09:26:32.711Z,11.93
2023-03-26T09:29:40.607Z,10.57
2023-03-26T09:32:09.650Z,10.77
2023-03-26T09:34:36.333Z,14.25
2023-03-26T09:37:18.760Z,10.13
2023-03-26T09:39:52.139Z,8.30
2023-03-26T09:42:29.278Z,9.55
2023-03-26T09:45:01.161Z,9.98
2023-03-26T09:47:39.590Z,14.20
2023-03-26T09:50:29.748Z,7.68
2023-03-26T09:53:07.053Z,9.38
2023-03-26T09:55:48.854Z,7.72
2023-03-26T09:58:23.591Z,12.10
2023-03-26T10:01:05.462Z,9.20
2023-03-26T10:03:43.868Z,10.15
2023-03-26T10:06:44.457Z,9.55
2023-03-26T10:09:45.743Z,8.75
2023-03-26T10:12:32.135Z,8.13
2023-03-26T10:15:16.648Z,8.40
2023-03-26T10:17:50.217Z,7.78
2023-03-26T10:20:31.307Z,7.72
2023-03-26T10:23:14.503Z,7.32
2023-03-26T10:25:59.364Z,9.80
2023-03-26T10:28:55.653Z,7.65
2023-03-26T10:31:34.362Z,7.60
2023-03-26T10:34:09.496Z,6.40
2023-03-26T10:37:11.558Z,7.68
2023-03-26T10:39:46.021Z,7.55
2023-03-26T10:42:22.514Z,6.30
2023-03-26T10:44:58.442Z,7.13
2023-03-26T10:47:49.535Z,4.85
2023-03-26T10:50:53.804Z,5.38
2023-03-26T10:53:34.705Z,5.43
2023-03-26T10:56:13.895Z,4.13
2023-03-26T10:58:46.094Z,5.70
2023-03-26T11:01:32.336Z,5.15
2023-03-26T11:04:15.454Z,6.13
2023-03-26T11:07:05.055Z,7.20
2023-03-26T11:09:54.946Z,8.30
2023-03-26T11:12:39.942Z,7.32
2023-03-26T11:15:22.658Z,6.70
2023-03-26T11:18:04.081Z,7.50
2023-03-26T11:20:36.787Z,9.15
2023-03-26T11:23:38.935Z,6.95
2023-03-26T11:26:25.871Z,5.90
2023-03-26T11:29:03.989Z,6.43
2023-03-26T11:32:05.967Z,6.78
2023-03-26T11:34:42.056Z,7.00
2023-03-26T11:37:18.621Z,7.45
2023-03-26T11:39:56.841Z,7.13
2023-03-26T11:42:24.929Z,6.70
2023-03-26T11:47:29.694Z,5.32
2023-03-26T11:50:00.613Z,6.15
2023-03-26T11:52:27.504Z,6.15
2023-03-26T11:54:54.119Z,6.50
2023-03-26T11:57:29.991Z,6.35
2023-03-26T12:00:10.786Z,8.98
2023-03-26T12:02:41.416Z,7.68
2023-03-26T12:05:14.695Z,6.45
2023-03-26T12:07:52.678Z,6.95
2023-03-26T12:10:26.077Z,5.95
2023-03-26T12:12:56.262Z,6.13
2023-03-26T12:15:23.176Z,6.88
2023-03-26T12:17:53.572Z,6.18
2023-03-26T12:20:25.971Z,6.20
2023-03-26T12:23:00.831Z,6.70
2023-03-26T12:25:32.726Z,5.68
2023-03-26T12:28:05.477Z,6.25
2023-03-26T12:30:39.538Z,6.85
2023-03-26T12:33:15.119Z,6.53
2023-03-26T12:35:43.643Z,6.00
2023-03-26T12:38:15.888Z,6.50
2023-03-26T12:40:43.802Z,7.15
2023-03-26T12:44:48.896Z,8.52
2023-03-26T12:47:58.312Z,6.18
2023-03-26T12:49:16.213Z,7.43
2023-03-26T12:51:58.835Z,6.93
2023-03-26T12:54:48.330Z,6.60
2023-03-26T12:57:26.648Z,8.40
2023-03-26T13:00:24.191Z,6.65
2023-03-26T13:03:05.680Z,7.57
2023-03-26T13:05:59.629Z,4.97
2023-03-26T13:09:17.895Z,7.20
2023-03-26T13:12:02.751Z,6.70
2023-03-26T13:14:38.306Z,6.60
2023-03-26T13:17:18.700Z,7.32
2023-03-26T13:20:13.228Z,6.10
2023-03-26T13:23:10.537Z,6.97
2023-03-26T13:25:52.172Z,6.97
2023-03-26T13:28:47.369Z,6.60
2023-03-26T13:31:16.819Z,4.78
2023-03-26T13:33:50.040Z,7.00
2023-03-26T13:36:24.218Z,8.05
2023-03-26T13:39:14.796Z,5.32
2023-03-26T13:41:59.452Z,7.60
2023-03-26T13:44:35.194Z,5.43
2023-03-26T13:47:20.180Z,5.05
2023-03-26T13:49:51.886Z,7.10
2023-03-26T13:52:35.349Z,8.02
2023-03-26T13:55:20.225Z,5.10
2023-03-26T13:57:55.337Z,5.78
2023-03-26T14:00:32.538Z,7.28
2023-03-26T14:03:10.705Z,5.80
2023-03-26T14:05:46.156Z,5.95
2023-03-26T14:08:22.600Z,5.68
2023-03-26T14:10:55.704Z,6.20
2023-03-26T14:13:29.615Z,7.00
2023-03-26T14:16:01.133Z,5.80
2023-03-26T14:18:27.661Z,5.55
2023-03-26T14:21:00.281Z,6.07
2023-03-26T14:23:38.842Z,6.45
2023-03-26T14:26:33.241Z,6.07
2023-03-26T14:29:05.720Z,4.43
2023-03-26T14:32:09.733Z,5.45
2023-03-26T14:35:04.786Z,6.82
2023-03-26T14:37:50.812Z,3.47
2023-03-26T14:40:51.527Z,5.47
2023-03-26T14:43:45.982Z,5.38
2023-03-26T14:46:21.145Z,5.97
2023-03-26T14:49:08.670Z,5.00
2023-03-26T14:51:53.558Z,6.65
2023-03-26T14:54:25.984Z,5.43
2023-03-26T14:57:16.032Z,5.70
2023-03-26T14:59:57.183Z,5.55
2023-03-26T15:03:09.158Z,5.70
2023-03-26T15:06:06.537Z,5.30
2023-03-26T15:09:10.513Z,5.47
2023-03-26T15:12:12.808Z,5.07
2023-03-26T15:15:07.092Z,6.50
2023-03-26T15:17:40.459Z,5.30
2023-03-26T15:20:16.012Z,6.05
2023-03-26T15:23:09.611Z,4.78
2023-03-26T15:26:20.920Z,5.93
2023-03-26T15:28:53.348Z,5.47
2023-03-26T15:31:42.501Z,6.75
2023-03-26T15:34:25.825Z,4.95
2023-03-26T15:37:18.278Z,4.60
2023-03-26T15:42:38.299Z,5.80
2023-03-26T15:45:29.532Z,7.80
2023-03-26T15:48:10.530Z,6.43
2023-03-26T15:50:49.612Z,5.78
2023-03-26T15:53:34.871Z,8.40
2023-03-26T15:56:07.221Z,5.20
2023-03-26T15:58:48.555Z,5.78
2023-03-26T16:01:33.955Z,6.82
2023-03-26T16:04:32.662Z,4.50
2023-03-26T16:07:05.532Z,4.68
2023-03-26T16:09:45.543Z,6.70
2023-03-26T16:12:11.916Z,8.80
2023-03-26T16:14:44.685Z,5.38
2023-03-26T16:17:20.678Z,5.38
2023-03-26T16:20:31.335Z,6.40
2023-03-26T16:25:52.633Z,6.15
2023-03-26T16:28:33.792Z,5.82
2023-03-26T16:31:36.603Z,5.40
2023-03-26T16:34:05.180Z,5.90
2023-03-26T16:36:51.682Z,5.93
2023-03-26T16:39:23.069Z,4.93
2023-03-26T16:42:06.087Z,6.32
2023-03-26T16:44:42.162Z,6.97
2023-03-26T16:47:36.721Z,5.47
2023-03-26T16:50:29.933Z,7.05
2023-03-26T16:53:23.291Z,5.20
2023-03-26T16:56:02.578Z,5.70
2023-03-26T16:58:36.769Z,5.07
2023-03-26T17:01:27.225Z,5.65
2023-03-26T17:04:10.012Z,7.45
2023-03-26T17:06:56.466Z,7.13
2023-03-26T17:09:26.197Z,6.63
2023-03-26T17:12:04.687Z,5.88
2023-03-26T17:14:50.826Z,6.05
2023-03-26T17:17:31.424Z,3.85
2023-03-26T17:20:32.775Z,5.32
2023-03-26T17:23:21.080Z,8.13
2023-03-26T17:26:06.001Z,5.15
2023-03-26T17:28:41.770Z,7.03
2023-03-26T17:31:45.903Z,6.18
2023-03-26T17:34:54.573Z,6.28
2023-03-26T17:37:23.967Z,5.90
2023-03-26T17:39:50.426Z,4.40
2023-03-26T17:42:18.639Z,5.68
2023-03-26T17:45:09.994Z,5.97
2023-03-26T17:47:44.019Z,5.75
2023-03-26T17:50:19.416Z,4.57
2023-03-26T17:52:55.090Z,5.00
2023-03-26T17:55:31.271Z,7.82
2023-03-26T17:58:21.065Z,5.60
2023-03-26T18:00:52.707Z,6.70
2023-03-26T18:03:29.541Z,4.05
2023-03-26T18:06:05.690Z,5.57
2023-03-26T18:08:42.023Z,5.82
2023-03-26T18:11:27.289Z,5.88
2023-03-26T18:14:21.638Z,4.22
2023-03-26T18:16:51.544Z,5.53
2023-03-26T18:19:22.158Z,6.00
2023-03-26T18:21:54.695Z,6.68
2023-03-26T18:24:27.551Z,6.38
2023-03-26T18:26:56.068Z,3.53
2023-03-26T18:29:35.285Z,5.68
2023-03-26T18:32:11.477Z,4.82
2023-03-26T18:34:46.029Z,5.68
2023-03-26T18:37:22.983Z,5.18
2023-03-26T18:40:12.515Z,4.97
2023-03-26T18:42:41.152Z,4.72
2023-03-26T18:45:33.157Z,5.78
2023-03-26T18:48:26.122Z,4.65
2023-03-26T18:51:06.020Z,5.18
2023-03-26T18:53:39.446Z,5.07
2023-03-26T18:56:27.738Z,5.20
2023-03-26T18:58:58.133Z,6.05
2023-03-26T19:01:30.691Z,5.30
2023-03-26T19:04:08.288Z,7.55
2023-03-26T19:06:39.946Z,4.10
2023-03-26T19:09:19.676Z,4.82
2023-03-26T19:11:57.145Z,7.15
2023-03-26T19:14:26.058Z,5.28
2023-03-26T19:16:58.271Z,7.05
2023-03-26T19:19:37.341Z,4.60
2023-03-26T19:22:09.277Z,5.00
2023-03-26T19:24:36.217Z,3.88
2023-03-26T19:27:03.999Z,6.47
2023-03-26T19:29:33.946Z,4.95
2023-03-26T19:32:16.003Z,5.53
2023-03-26T19:34:45.580Z,6.30
2023-03-26T19:37:21.519Z,3.40
2023-03-26T19:39:54.121Z,6.18
2023-03-26T19:42:26.632Z,5.38
2023-03-26T19:44:54.336Z,4.82
2023-03-26T19:47:45.495Z,4.95
2023-03-26T19:50:28.902Z,4.28
2023-03-26T19:53:17.838Z,6.63
2023-03-26T19:56:11.687Z,5.18
2023-03-26T19:58:38.161Z,5.20
2023-03-26T20:01:05.623Z,6.28
2023-03-26T20:03:44.026Z,5.03
2023-03-26T20:06:13.333Z,4.60
2023-03-26T20:08:40.658Z,6.10
2023-03-26T20:11:14.987Z,5.78
2023-03-26T20:13:41.444Z,4.68
2023-03-26T20:16:24.069Z,3.67
2023-03-26T20:18:57.212Z,5.68
2023-03-26T20:21:26.619Z,5.15
2023-03-26T20:23:55.697Z,5.15
2023-03-26T20:26:23.732Z,5.38
2023-03-26T20:31:23.635Z,6.63
2023-03-26T20:33:51.987Z,6.28
2023-03-26T20:36:34.173Z,5.38
2023-03-26T20:39:05.631Z,3.83
2023-03-26T20:41:33.776Z,5.38
2023-03-26T20:44:00.588Z,8.50
2023-03-26T20:46:30.672Z,5.47
2023-03-26T20:48:58.043Z,3.78
2023-03-26T20:51:25.108Z,5.72
2023-03-26T20:53:51.617Z,5.40
2023-03-26T20:56:19.808Z,4.70
2023-03-26T20:58:54.805Z,5.68
2023-03-26T21:01:27.854Z,5.15
2023-03-26T21:03:54.673Z,5.75
2023-03-26T21:06:21.126Z,4.53
2023-03-26T21:08:47.786Z,3.78
2023-03-26T21:11:27.281Z,5.50
2023-03-26T21:13:56.776Z,4.60
2023-03-26T21:16:23.630Z,4.07
2023-03-26T21:18:51.658Z,4.45
2023-03-26T21:21:43.647Z,4.53
2023-03-26T21:24:24.764Z,4.22
2023-03-26T21:27:08.479Z,3.75
2023-03-26T21:29:35.163Z,6.18
2023-03-26T21:32:01.981Z,5.18
2023-03-26T21:34:29.141Z,4.88
2023-03-26T21:36:55.904Z,3.58
2023-03-26T21:39:23.186Z,3.70
2023-03-26T21:42:05.377Z,3.92
2023-03-26T21:44:33.562Z,4.30
2023-03-26T21:47:00.318Z,3.65
2023-03-26T21:49:27.249Z,3.50
2023-03-26T21:51:54.104Z,3.90
2023-03-26T21:54:32.475Z,3.10
2023-03-26T21:57:20.553Z,3.22
2023-03-26T22:00:11.524Z,4.78
2023-03-26T22:02:57.917Z,4.30
2023-03-26T22:05:37.878Z,4.82
2023-03-26T22:08:06.209Z,3.97
2023-03-26T22:10:32.713Z,6.38
2023-03-26T22:12:59.511Z,3.47
2023-03-26T22:15:26.822Z,3.72
2023-03-26T22:17:56.630Z,5.45
2023-03-26T22:20:27.919Z,4.10
2023-03-26T22:22:55.156Z,3.95
2023-03-26T22:25:23.218Z,4.90
2023-03-26T22:30:18.817Z,4.68
2023-03-26T22:32:45.679Z,3.78
2023-03-26T22:35:12.998Z,3.15
2023-03-26T22:37:39.899Z,5.78
2023-03-26T22:40:08.728Z,3.38
2023-03-26T22:42:36.329Z,3.38
2023-03-26T22:45:04.051Z,4.57
2023-03-26T22:47:33.602Z,5.25
2023-03-26T22:50:00.598Z,4.05
2023-03-26T22:52:27.304Z,5.43
2023-03-26T22:54:53.743Z,4.05
2023-03-26T22:57:21.930Z,4.95
2023-03-26T22:59:48.454Z,2.58
2023-03-26T23:02:16.656Z,3.78
2023-03-26T23:04:44.047Z,5.55
2023-03-26T23:07:10.966Z,3.85
2023-03-26T23:09:37.582Z,3.33
2023-03-26T23:12:04.731Z,3.55
2023-03-26T23:14:33.780Z,5.72
2023-03-26T23:17:01.426Z,3.75
2023-03-26T23:19:30.104Z,3.90
2023-03-26T23:21:57.563Z,3.75
2023-03-26T23:24:26.459Z,4.00
2023-03-26T23:26:53.242Z,3.72
2023-03-26T23:29:20.003Z,4.25
2023-03-26T23:31:46.735Z,3.30
2023-03-26T23:34:13.608Z,4.40
2023-03-26T23:36:40.840Z,4.47
2023-03-26T23:39:07.339Z,3.80
2023-03-26T23:41:34.436Z,2.90
2023-03-26T23:44:01.547Z,3.85
2023-03-26T23:46:34.611Z,3.72
2023-03-26T23:49:04.808Z,3.70
2023-03-26T23:51:32.730Z,3.55
2023-03-26T23:54:00.483Z,4.75
2023-03-26T23:56:30.028Z,4.03
2023-03-26T23:58:56.721Z,4.65
